sensor_id;sensor_type;location;lat;lon;timestamp;temperature;humidity
36816;DHT22;71982;52.294;6.760;2024-02-16T00:00:23;12.00;99.90
36816;DHT22;71982;52.294;6.760;2024-02-16T00:02:50;12.00;99.90
36816;DHT22;71982;52.294;6.760;2024-02-16T00:05:18;12.10;99.90
36816;DHT22;71982;52.294;6.760;2024-02-16T00:07:46;12.10;99.90
36816;DHT22;71982;52.294;6.760;2024-02-16T00:10:13;12.10;99.90
36816;DHT22;71982;52.294;6.760;2024-02-16T00:12:40;12.10;99.90
36816;DHT22;71982;52.294;6.760;2024-02-16T00:15:08;12.10;99.90
36816;DHT22;71982;52.294;6.760;2024-02-16T00:17:36;12.10;99.90
36816;DHT22;71982;52.294;6.760;2024-02-16T00:20:04;12.10;99.90
36816;DHT22;71982;52.294;6.760;2024-02-16T00:22:33;12.10;99.90
36816;DHT22;71982;52.294;6.760;2024-02-16T00:25:01;12.20;99.90
36816;DHT22;71982;52.294;6.760;2024-02-16T00:27:29;12.20;99.90
36816;DHT22;71982;52.294;6.760;2024-02-16T00:29:56;12.20;99.90
36816;DHT22;71982;52.294;6.760;2024-02-16T00:32:23;12.30;99.90
36816;DHT22;71982;52.294;6.760;2024-02-16T00:34:55;12.30;99.90
36816;DHT22;71982;52.294;6.760;2024-02-16T00:37:22;12.20;99.90
36816;DHT22;71982;52.294;6.760;2024-02-16T00:39:50;12.20;99.90
36816;DHT22;71982;52.294;6.760;2024-02-16T00:42:19;12.20;99.90
36816;DHT22;71982;52.294;6.760;2024-02-16T00:44:47;12.10;99.90
36816;DHT22;71982;52.294;6.760;2024-02-16T00:47:14;12.10;99.90
36816;DHT22;71982;52.294;6.760;2024-02-16T00:49:41;12.10;99.90
36816;DHT22;71982;52.294;6.760;2024-02-16T00:52:08;12.00;99.90
36816;DHT22;71982;52.294;6.760;2024-02-16T00:54:37;12.10;99.90
36816;DHT22;71982;52.294;6.760;2024-02-16T00:57:04;12.00;99.90
36816;DHT22;71982;52.294;6.760;2024-02-16T00:59:32;12.00;99.90
36816;DHT22;71982;52.294;6.760;2024-02-16T01:01:59;11.90;99.90
36816;DHT22;71982;52.294;6.760;2024-02-16T01:04:26;11.90;99.90
36816;DHT22;71982;52.294;6.760;2024-02-16T01:06:53;11.90;99.90
36816;DHT22;71982;52.294;6.760;2024-02-16T01:09:20;11.80;99.90
36816;DHT22;71982;52.294;6.760;2024-02-16T01:11:47;11.80;99.90
36816;DHT22;71982;52.294;6.760;2024-02-16T01:14:14;11.70;99.90
36816;DHT22;71982;52.294;6.760;2024-02-16T01:16:42;11.70;99.90
36816;DHT22;71982;52.294;6.760;2024-02-16T01:19:09;11.60;99.90
36816;DHT22;71982;52.294;6.760;2024-02-16T01:21:36;11.50;99.90
36816;DHT22;71982;52.294;6.760;2024-02-16T01:24:04;11.60;99.90
36816;DHT22;71982;52.294;6.760;2024-02-16T01:26:33;11.50;99.90
36816;DHT22;71982;52.294;6.760;2024-02-16T01:29:00;11.60;99.90
36816;DHT22;71982;52.294;6.760;2024-02-16T01:31:27;11.60;99.90
36816;DHT22;71982;52.294;6.760;2024-02-16T01:33:56;11.60;99.90
36816;DHT22;71982;52.294;6.760;2024-02-16T01:36:23;11.60;99.90
36816;DHT22;71982;52.294;6.760;2024-02-16T01:38:49;11.60;99.90
36816;DHT22;71982;52.294;6.760;2024-02-16T01:41:16;11.50;99.90
36816;DHT22;71982;52.294;6.760;2024-02-16T01:43:43;11.40;99.90
36816;DHT22;71982;52.294;6.760;2024-02-16T01:46:10;11.50;99.90
36816;DHT22;71982;52.294;6.760;2024-02-16T01:48:37;11.50;99.90
36816;DHT22;71982;52.294;6.760;2024-02-16T01:51:08;11.60;99.90
36816;DHT22;71982;52.294;6.760;2024-02-16T01:53:35;11.60;99.90
36816;DHT22;71982;52.294;6.760;2024-02-16T01:56:03;11.50;99.90
36816;DHT22;71982;52.294;6.760;2024-02-16T01:58:30;11.50;99.90
36816;DHT22;71982;52.294;6.760;2024-02-16T02:00:57;11.40;99.90
36816;DHT22;71982;52.294;6.760;2024-02-16T02:03:24;11.60;99.90
36816;DHT22;71982;52.294;6.760;2024-02-16T02:05:52;11.60;99.90
36816;DHT22;71982;52.294;6.760;2024-02-16T02:08:21;11.50;99.90
36816;DHT22;71982;52.294;6.760;2024-02-16T02:10:48;11.50;99.90
36816;DHT22;71982;52.294;6.760;2024-02-16T02:13:15;11.50;99.90
36816;DHT22;71982;52.294;6.760;2024-02-16T02:15:45;11.50;99.90
36816;DHT22;71982;52.294;6.760;2024-02-16T02:18:12;11.50;99.90
36816;DHT22;71982;52.294;6.760;2024-02-16T02:20:39;11.60;99.90
36816;DHT22;71982;52.294;6.760;2024-02-16T02:23:07;11.50;99.90
36816;DHT22;71982;52.294;6.760;2024-02-16T02:25:35;11.50;99.90
36816;DHT22;71982;52.294;6.760;2024-02-16T02:28:02;11.50;99.90
36816;DHT22;71982;52.294;6.760;2024-02-16T02:30:29;11.60;99.90
36816;DHT22;71982;52.294;6.760;2024-02-16T02:32:56;11.60;99.90
36816;DHT22;71982;52.294;6.760;2024-02-16T02:35:23;11.60;99.90
36816;DHT22;71982;52.294;6.760;2024-02-16T02:37:50;11.50;99.90
36816;DHT22;71982;52.294;6.760;2024-02-16T02:40:19;11.50;99.90
36816;DHT22;71982;52.294;6.760;2024-02-16T02:42:46;11.40;99.90
36816;DHT22;71982;52.294;6.760;2024-02-16T02:45:13;11.40;99.90
36816;DHT22;71982;52.294;6.760;2024-02-16T02:47:40;11.40;99.90
36816;DHT22;71982;52.294;6.760;2024-02-16T02:50:08;11.40;99.90
36816;DHT22;71982;52.294;6.760;2024-02-16T02:52:35;11.40;99.90
36816;DHT22;71982;52.294;6.760;2024-02-16T02:55:02;11.30;99.90
36816;DHT22;71982;52.294;6.760;2024-02-16T02:57:30;11.30;99.90
36816;DHT22;71982;52.294;6.760;2024-02-16T03:00:03;11.20;99.90
36816;DHT22;71982;52.294;6.760;2024-02-16T03:02:32;11.20;99.90
36816;DHT22;71982;52.294;6.760;2024-02-16T03:04:59;11.10;99.90
36816;DHT22;71982;52.294;6.760;2024-02-16T03:07:25;11.10;99.90
36816;DHT22;71982;52.294;6.760;2024-02-16T03:09:53;11.10;99.90
36816;DHT22;71982;52.294;6.760;2024-02-16T03:12:19;11.10;99.90
36816;DHT22;71982;52.294;6.760;2024-02-16T03:14:48;11.10;99.90
36816;DHT22;71982;52.294;6.760;2024-02-16T03:17:15;11.10;99.90
36816;DHT22;71982;52.294;6.760;2024-02-16T03:19:42;11.00;99.90
36816;DHT22;71982;52.294;6.760;2024-02-16T03:22:08;11.00;99.90
36816;DHT22;71982;52.294;6.760;2024-02-16T03:24:35;11.00;99.90
36816;DHT22;71982;52.294;6.760;2024-02-16T03:27:02;11.00;99.90
36816;DHT22;71982;52.294;6.760;2024-02-16T03:29:29;11.00;99.90
36816;DHT22;71982;52.294;6.760;2024-02-16T03:31:58;11.00;99.90
36816;DHT22;71982;52.294;6.760;2024-02-16T03:34:25;11.10;99.90
36816;DHT22;71982;52.294;6.760;2024-02-16T03:36:52;11.10;99.90
36816;DHT22;71982;52.294;6.760;2024-02-16T03:39:19;11.10;99.90
36816;DHT22;71982;52.294;6.760;2024-02-16T03:41:46;11.10;99.90
36816;DHT22;71982;52.294;6.760;2024-02-16T03:44:14;11.10;99.90
36816;DHT22;71982;52.294;6.760;2024-02-16T03:46:41;11.10;99.90
36816;DHT22;71982;52.294;6.760;2024-02-16T03:49:10;11.10;99.90
36816;DHT22;71982;52.294;6.760;2024-02-16T03:51:36;11.10;99.90
36816;DHT22;71982;52.294;6.760;2024-02-16T03:54:03;11.10;99.90
36816;DHT22;71982;52.294;6.760;2024-02-16T03:56:30;11.10;99.90
36816;DHT22;71982;52.294;6.760;2024-02-16T03:58:57;11.20;99.90
36816;DHT22;71982;52.294;6.760;2024-02-16T04:01:24;11.10;99.90
36816;DHT22;71982;52.294;6.760;2024-02-16T04:03:51;11.10;99.90
36816;DHT22;71982;52.294;6.760;2024-02-16T04:06:20;11.20;99.90
36816;DHT22;71982;52.294;6.760;2024-02-16T04:08:47;11.30;99.90
36816;DHT22;71982;52.294;6.760;2024-02-16T04:11:14;11.30;99.90
36816;DHT22;71982;52.294;6.760;2024-02-16T04:13:41;11.40;99.90
36816;DHT22;71982;52.294;6.760;2024-02-16T04:16:08;11.40;99.90
36816;DHT22;71982;52.294;6.760;2024-02-16T04:18:35;11.40;99.90
36816;DHT22;71982;52.294;6.760;2024-02-16T04:21:02;11.40;99.90
36816;DHT22;71982;52.294;6.760;2024-02-16T04:23:30;11.30;99.90
36816;DHT22;71982;52.294;6.760;2024-02-16T04:25:57;11.30;99.90
36816;DHT22;71982;52.294;6.760;2024-02-16T04:28:24;11.20;99.90
36816;DHT22;71982;52.294;6.760;2024-02-16T04:30:51;11.20;99.90
36816;DHT22;71982;52.294;6.760;2024-02-16T04:33:18;11.20;99.90
36816;DHT22;71982;52.294;6.760;2024-02-16T04:35:45;11.10;99.90
36816;DHT22;71982;52.294;6.760;2024-02-16T04:38:13;11.10;99.90
36816;DHT22;71982;52.294;6.760;2024-02-16T04:40:42;11.10;99.90
36816;DHT22;71982;52.294;6.760;2024-02-16T04:43:09;11.10;99.90
36816;DHT22;71982;52.294;6.760;2024-02-16T04:45:36;11.10;99.90
36816;DHT22;71982;52.294;6.760;2024-02-16T04:48:03;11.10;99.90
36816;DHT22;71982;52.294;6.760;2024-02-16T04:50:31;11.10;99.90
36816;DHT22;71982;52.294;6.760;2024-02-16T04:52:58;11.10;99.90
36816;DHT22;71982;52.294;6.760;2024-02-16T04:55:25;11.20;99.90
36816;DHT22;71982;52.294;6.760;2024-02-16T04:57:53;11.20;99.90
36816;DHT22;71982;52.294;6.760;2024-02-16T05:00:20;11.30;99.90
36816;DHT22;71982;52.294;6.760;2024-02-16T05:02:47;11.20;99.90
36816;DHT22;71982;52.294;6.760;2024-02-16T05:05:14;11.20;99.90
36816;DHT22;71982;52.294;6.760;2024-02-16T05:07:42;11.20;99.90
36816;DHT22;71982;52.294;6.760;2024-02-16T05:10:09;11.20;99.90
36816;DHT22;71982;52.294;6.760;2024-02-16T05:12:37;11.20;99.90
36816;DHT22;71982;52.294;6.760;2024-02-16T05:15:06;11.20;99.90
36816;DHT22;71982;52.294;6.760;2024-02-16T05:17:34;11.20;99.90
36816;DHT22;71982;52.294;6.760;2024-02-16T05:20:01;11.20;99.90
36816;DHT22;71982;52.294;6.760;2024-02-16T05:22:28;11.20;99.90
36816;DHT22;71982;52.294;6.760;2024-02-16T05:24:55;11.30;99.90
36816;DHT22;71982;52.294;6.760;2024-02-16T05:27:22;11.20;99.90
36816;DHT22;71982;52.294;6.760;2024-02-16T05:29:49;11.20;99.90
36816;DHT22;71982;52.294;6.760;2024-02-16T05:32:18;11.10;99.90
36816;DHT22;71982;52.294;6.760;2024-02-16T05:34:44;11.10;99.90
36816;DHT22;71982;52.294;6.760;2024-02-16T05:37:11;11.20;99.90
36816;DHT22;71982;52.294;6.760;2024-02-16T05:39:40;11.10;99.90
36816;DHT22;71982;52.294;6.760;2024-02-16T05:42:19;11.00;99.90
36816;DHT22;71982;52.294;6.760;2024-02-16T05:44:47;11.10;99.90
36816;DHT22;71982;52.294;6.760;2024-02-16T05:47:15;11.10;99.90
36816;DHT22;71982;52.294;6.760;2024-02-16T05:49:45;11.10;99.90
36816;DHT22;71982;52.294;6.760;2024-02-16T05:52:12;11.10;99.90
36816;DHT22;71982;52.294;6.760;2024-02-16T05:54:46;11.10;99.90
36816;DHT22;71982;52.294;6.760;2024-02-16T05:57:13;11.00;99.90
36816;DHT22;71982;52.294;6.760;2024-02-16T05:59:40;11.00;99.90
36816;DHT22;71982;52.294;6.760;2024-02-16T06:02:08;11.10;99.90
36816;DHT22;71982;52.294;6.760;2024-02-16T06:04:36;11.00;99.90
36816;DHT22;71982;52.294;6.760;2024-02-16T06:07:04;11.00;99.90
36816;DHT22;71982;52.294;6.760;2024-02-16T06:09:31;11.10;99.90
36816;DHT22;71982;52.294;6.760;2024-02-16T06:12:01;11.10;99.90
36816;DHT22;71982;52.294;6.760;2024-02-16T06:14:30;11.10;99.90
36816;DHT22;71982;52.294;6.760;2024-02-16T06:16:57;11.10;99.90
36816;DHT22;71982;52.294;6.760;2024-02-16T06:19:24;11.10;99.90
36816;DHT22;71982;52.294;6.760;2024-02-16T06:21:52;11.10;99.90
36816;DHT22;71982;52.294;6.760;2024-02-16T06:24:21;11.20;99.90
36816;DHT22;71982;52.294;6.760;2024-02-16T06:26:48;11.20;99.90
36816;DHT22;71982;52.294;6.760;2024-02-16T06:29:15;11.20;99.90
36816;DHT22;71982;52.294;6.760;2024-02-16T06:31:42;11.20;99.90
36816;DHT22;71982;52.294;6.760;2024-02-16T06:34:09;11.30;99.90
36816;DHT22;71982;52.294;6.760;2024-02-16T06:36:36;11.30;99.90
36816;DHT22;71982;52.294;6.760;2024-02-16T06:39:03;11.30;99.90
36816;DHT22;71982;52.294;6.760;2024-02-16T06:41:32;11.30;99.90
36816;DHT22;71982;52.294;6.760;2024-02-16T06:44:01;11.30;99.90
36816;DHT22;71982;52.294;6.760;2024-02-16T06:46:29;11.30;99.90
36816;DHT22;71982;52.294;6.760;2024-02-16T06:48:57;11.30;99.90
36816;DHT22;71982;52.294;6.760;2024-02-16T06:51:24;11.30;99.90
36816;DHT22;71982;52.294;6.760;2024-02-16T06:53:52;11.40;99.90
36816;DHT22;71982;52.294;6.760;2024-02-16T06:56:19;11.50;99.90
36816;DHT22;71982;52.294;6.760;2024-02-16T06:58:47;11.50;99.90
36816;DHT22;71982;52.294;6.760;2024-02-16T07:01:15;11.50;99.90
36816;DHT22;71982;52.294;6.760;2024-02-16T07:03:43;11.60;99.90
36816;DHT22;71982;52.294;6.760;2024-02-16T07:06:12;11.60;99.90
36816;DHT22;71982;52.294;6.760;2024-02-16T07:08:39;11.60;99.90
36816;DHT22;71982;52.294;6.760;2024-02-16T07:11:06;11.60;99.90
36816;DHT22;71982;52.294;6.760;2024-02-16T07:13:34;11.70;99.90
36816;DHT22;71982;52.294;6.760;2024-02-16T07:16:03;11.70;99.90
36816;DHT22;71982;52.294;6.760;2024-02-16T07:18:32;11.80;99.90
36816;DHT22;71982;52.294;6.760;2024-02-16T07:20:59;11.80;99.90
36816;DHT22;71982;52.294;6.760;2024-02-16T07:23:26;11.80;99.90
36816;DHT22;71982;52.294;6.760;2024-02-16T07:25:53;11.90;99.90
36816;DHT22;71982;52.294;6.760;2024-02-16T07:28:22;12.00;99.90
36816;DHT22;71982;52.294;6.760;2024-02-16T07:30:49;12.00;99.90
36816;DHT22;71982;52.294;6.760;2024-02-16T07:33:17;12.10;99.90
36816;DHT22;71982;52.294;6.760;2024-02-16T07:35:44;12.20;99.90
36816;DHT22;71982;52.294;6.760;2024-02-16T07:38:11;12.30;99.90
36816;DHT22;71982;52.294;6.760;2024-02-16T07:40:38;12.40;99.90
36816;DHT22;71982;52.294;6.760;2024-02-16T07:43:05;12.50;99.90
36816;DHT22;71982;52.294;6.760;2024-02-16T07:45:34;12.60;99.90
36816;DHT22;71982;52.294;6.760;2024-02-16T07:48:00;12.60;99.90
36816;DHT22;71982;52.294;6.760;2024-02-16T07:50:32;12.70;99.90
36816;DHT22;71982;52.294;6.760;2024-02-16T07:52:59;12.70;99.90
36816;DHT22;71982;52.294;6.760;2024-02-16T07:55:26;12.70;99.90
36816;DHT22;71982;52.294;6.760;2024-02-16T07:57:53;12.80;99.90
36816;DHT22;71982;52.294;6.760;2024-02-16T08:00:20;12.90;99.90
36816;DHT22;71982;52.294;6.760;2024-02-16T08:02:47;12.90;99.90
36816;DHT22;71982;52.294;6.760;2024-02-16T08:05:14;12.90;99.90
36816;DHT22;71982;52.294;6.760;2024-02-16T08:07:46;13.00;99.90
36816;DHT22;71982;52.294;6.760;2024-02-16T08:10:13;13.10;99.90
36816;DHT22;71982;52.294;6.760;2024-02-16T08:12:41;13.10;99.90
36816;DHT22;71982;52.294;6.760;2024-02-16T08:15:09;13.10;99.90
36816;DHT22;71982;52.294;6.760;2024-02-16T08:17:37;13.20;99.90
36816;DHT22;71982;52.294;6.760;2024-02-16T08:20:05;13.30;99.90
36816;DHT22;71982;52.294;6.760;2024-02-16T08:22:33;13.40;99.90
36816;DHT22;71982;52.294;6.760;2024-02-16T08:25:03;13.40;99.90
36816;DHT22;71982;52.294;6.760;2024-02-16T08:27:31;13.30;99.90
36816;DHT22;71982;52.294;6.760;2024-02-16T08:29:58;13.40;99.90
36816;DHT22;71982;52.294;6.760;2024-02-16T08:32:25;13.40;99.90
36816;DHT22;71982;52.294;6.760;2024-02-16T08:34:53;13.50;99.90
36816;DHT22;71982;52.294;6.760;2024-02-16T08:37:21;13.50;99.90
36816;DHT22;71982;52.294;6.760;2024-02-16T08:39:48;13.50;99.90
36816;DHT22;71982;52.294;6.760;2024-02-16T08:42:17;13.50;99.90
36816;DHT22;71982;52.294;6.760;2024-02-16T08:44:44;13.50;99.90
36816;DHT22;71982;52.294;6.760;2024-02-16T08:47:10;13.60;99.90
36816;DHT22;71982;52.294;6.760;2024-02-16T08:49:37;13.60;99.90
36816;DHT22;71982;52.294;6.760;2024-02-16T08:52:06;13.60;99.90
36816;DHT22;71982;52.294;6.760;2024-02-16T08:54:33;13.70;99.90
36816;DHT22;71982;52.294;6.760;2024-02-16T08:57:00;13.70;99.90
36816;DHT22;71982;52.294;6.760;2024-02-16T08:59:28;13.70;99.90
36816;DHT22;71982;52.294;6.760;2024-02-16T09:01:55;13.70;99.90
36816;DHT22;71982;52.294;6.760;2024-02-16T09:04:24;13.70;99.90
36816;DHT22;71982;52.294;6.760;2024-02-16T09:06:51;13.80;99.90
36816;DHT22;71982;52.294;6.760;2024-02-16T09:09:18;13.80;99.90
36816;DHT22;71982;52.294;6.760;2024-02-16T09:11:45;13.90;99.90
36816;DHT22;71982;52.294;6.760;2024-02-16T09:14:12;13.90;99.90
36816;DHT22;71982;52.294;6.760;2024-02-16T09:16:41;13.90;99.90
36816;DHT22;71982;52.294;6.760;2024-02-16T09:19:07;13.90;99.90
36816;DHT22;71982;52.294;6.760;2024-02-16T09:21:35;14.00;99.90
36816;DHT22;71982;52.294;6.760;2024-02-16T09:24:02;14.00;99.90
36816;DHT22;71982;52.294;6.760;2024-02-16T09:26:30;14.00;99.90
36816;DHT22;71982;52.294;6.760;2024-02-16T09:28:59;14.10;99.90
36816;DHT22;71982;52.294;6.760;2024-02-16T09:31:25;14.20;99.90
36816;DHT22;71982;52.294;6.760;2024-02-16T09:33:54;14.20;99.90
36816;DHT22;71982;52.294;6.760;2024-02-16T09:36:21;14.30;99.90
36816;DHT22;71982;52.294;6.760;2024-02-16T09:38:48;14.30;99.90
36816;DHT22;71982;52.294;6.760;2024-02-16T09:41:16;14.40;99.90
36816;DHT22;71982;52.294;6.760;2024-02-16T09:43:43;14.40;99.90
36816;DHT22;71982;52.294;6.760;2024-02-16T09:46:10;14.40;99.90
36816;DHT22;71982;52.294;6.760;2024-02-16T09:48:40;14.40;99.90
36816;DHT22;71982;52.294;6.760;2024-02-16T09:51:10;14.30;99.90
36816;DHT22;71982;52.294;6.760;2024-02-16T09:53:37;14.30;99.90
36816;DHT22;71982;52.294;6.760;2024-02-16T09:56:05;14.30;99.90
36816;DHT22;71982;52.294;6.760;2024-02-16T09:58:34;14.30;99.90
36816;DHT22;71982;52.294;6.760;2024-02-16T10:01:02;14.10;99.90
36816;DHT22;71982;52.294;6.760;2024-02-16T10:03:30;14.00;99.90
36816;DHT22;71982;52.294;6.760;2024-02-16T10:06:05;14.00;99.90
36816;DHT22;71982;52.294;6.760;2024-02-16T10:08:34;14.00;99.90
36816;DHT22;71982;52.294;6.760;2024-02-16T10:11:02;13.90;99.90
36816;DHT22;71982;52.294;6.760;2024-02-16T10:13:30;13.90;99.90
36816;DHT22;71982;52.294;6.760;2024-02-16T10:16:05;13.80;99.90
36816;DHT22;71982;52.294;6.760;2024-02-16T10:18:34;13.80;99.90
36816;DHT22;71982;52.294;6.760;2024-02-16T10:21:01;13.80;99.90
36816;DHT22;71982;52.294;6.760;2024-02-16T10:23:29;13.80;99.90
36816;DHT22;71982;52.294;6.760;2024-02-16T10:25:57;13.80;99.90
36816;DHT22;71982;52.294;6.760;2024-02-16T10:28:28;13.80;99.90
36816;DHT22;71982;52.294;6.760;2024-02-16T10:30:58;13.90;99.90
36816;DHT22;71982;52.294;6.760;2024-02-16T10:33:27;14.00;99.90
36816;DHT22;71982;52.294;6.760;2024-02-16T10:35:56;14.00;99.90
36816;DHT22;71982;52.294;6.760;2024-02-16T10:38:25;14.10;99.90
36816;DHT22;71982;52.294;6.760;2024-02-16T10:40:53;14.30;99.90
36816;DHT22;71982;52.294;6.760;2024-02-16T10:43:23;14.40;99.90
36816;DHT22;71982;52.294;6.760;2024-02-16T10:45:51;14.40;99.90
36816;DHT22;71982;52.294;6.760;2024-02-16T10:48:19;14.30;99.90
36816;DHT22;71982;52.294;6.760;2024-02-16T10:50:46;14.30;99.90
36816;DHT22;71982;52.294;6.760;2024-02-16T10:53:21;14.30;99.90
36816;DHT22;71982;52.294;6.760;2024-02-16T10:55:49;14.30;99.90
36816;DHT22;71982;52.294;6.760;2024-02-16T10:58:17;14.30;99.90
36816;DHT22;71982;52.294;6.760;2024-02-16T11:00:55;14.20;99.90
36816;DHT22;71982;52.294;6.760;2024-02-16T11:03:24;14.20;99.90
36816;DHT22;71982;52.294;6.760;2024-02-16T11:05:52;14.30;99.90
36816;DHT22;71982;52.294;6.760;2024-02-16T11:08:20;14.20;99.90
36816;DHT22;71982;52.294;6.760;2024-02-16T11:10:57;14.20;99.90
36816;DHT22;71982;52.294;6.760;2024-02-16T11:13:24;14.20;99.90
36816;DHT22;71982;52.294;6.760;2024-02-16T11:16:00;14.20;99.90
36816;DHT22;71982;52.294;6.760;2024-02-16T11:18:28;14.30;99.90
36816;DHT22;71982;52.294;6.760;2024-02-16T11:20:55;14.30;99.90
36816;DHT22;71982;52.294;6.760;2024-02-16T11:23:27;14.20;99.90
36816;DHT22;71982;52.294;6.760;2024-02-16T11:25:59;14.20;99.90
36816;DHT22;71982;52.294;6.760;2024-02-16T11:28:27;14.20;99.90
36816;DHT22;71982;52.294;6.760;2024-02-16T11:30:54;14.30;99.90
36816;DHT22;71982;52.294;6.760;2024-02-16T11:33:23;14.30;99.90
36816;DHT22;71982;52.294;6.760;2024-02-16T11:35:54;14.40;99.90
36816;DHT22;71982;52.294;6.760;2024-02-16T11:38:21;14.30;99.90
36816;DHT22;71982;52.294;6.760;2024-02-16T11:40:56;14.20;99.90
36816;DHT22;71982;52.294;6.760;2024-02-16T11:43:23;14.10;99.90
36816;DHT22;71982;52.294;6.760;2024-02-16T11:45:50;14.10;99.90
36816;DHT22;71982;52.294;6.760;2024-02-16T11:48:23;14.00;99.90
36816;DHT22;71982;52.294;6.760;2024-02-16T11:50:59;13.80;99.90
36816;DHT22;71982;52.294;6.760;2024-02-16T11:53:26;13.60;99.90
36816;DHT22;71982;52.294;6.760;2024-02-16T11:55:53;13.40;99.90
36816;DHT22;71982;52.294;6.760;2024-02-16T11:58:21;13.20;99.90
36816;DHT22;71982;52.294;6.760;2024-02-16T12:00:49;13.10;99.90
36816;DHT22;71982;52.294;6.760;2024-02-16T12:03:19;13.00;99.90
36816;DHT22;71982;52.294;6.760;2024-02-16T12:05:52;12.90;99.90
36816;DHT22;71982;52.294;6.760;2024-02-16T12:08:19;12.80;99.90
36816;DHT22;71982;52.294;6.760;2024-02-16T12:10:47;12.70;99.90
36816;DHT22;71982;52.294;6.760;2024-02-16T12:13:16;12.60;99.90
36816;DHT22;71982;52.294;6.760;2024-02-16T12:15:44;12.60;99.90
36816;DHT22;71982;52.294;6.760;2024-02-16T12:18:18;12.60;99.90
36816;DHT22;71982;52.294;6.760;2024-02-16T12:20:45;12.50;99.90
36816;DHT22;71982;52.294;6.760;2024-02-16T12:23:15;12.50;99.90
36816;DHT22;71982;52.294;6.760;2024-02-16T12:25:42;12.50;99.90
36816;DHT22;71982;52.294;6.760;2024-02-16T12:28:09;12.40;99.90
36816;DHT22;71982;52.294;6.760;2024-02-16T12:30:36;12.50;99.90
36816;DHT22;71982;52.294;6.760;2024-02-16T12:33:03;12.50;99.90
36816;DHT22;71982;52.294;6.760;2024-02-16T12:35:30;12.40;99.90
36816;DHT22;71982;52.294;6.760;2024-02-16T12:37:57;12.50;99.90
36816;DHT22;71982;52.294;6.760;2024-02-16T12:40:25;12.40;99.90
36816;DHT22;71982;52.294;6.760;2024-02-16T12:42:52;12.40;99.90
36816;DHT22;71982;52.294;6.760;2024-02-16T12:45:19;12.40;99.90
36816;DHT22;71982;52.294;6.760;2024-02-16T12:47:46;12.30;99.90
36816;DHT22;71982;52.294;6.760;2024-02-16T12:50:13;12.40;99.90
36816;DHT22;71982;52.294;6.760;2024-02-16T12:52:40;12.30;99.90
36816;DHT22;71982;52.294;6.760;2024-02-16T12:55:07;12.40;99.90
36816;DHT22;71982;52.294;6.760;2024-02-16T12:57:37;12.40;99.90
36816;DHT22;71982;52.294;6.760;2024-02-16T13:00:05;12.40;99.90
36816;DHT22;71982;52.294;6.760;2024-02-16T13:02:32;12.40;99.90
36816;DHT22;71982;52.294;6.760;2024-02-16T13:04:59;12.40;99.90
36816;DHT22;71982;52.294;6.760;2024-02-16T13:07:26;12.40;99.90
36816;DHT22;71982;52.294;6.760;2024-02-16T13:09:53;12.40;99.90
36816;DHT22;71982;52.294;6.760;2024-02-16T13:12:20;12.40;99.90
36816;DHT22;71982;52.294;6.760;2024-02-16T13:14:50;12.50;99.90
36816;DHT22;71982;52.294;6.760;2024-02-16T13:17:17;12.50;99.90
36816;DHT22;71982;52.294;6.760;2024-02-16T13:19:44;12.50;99.90
36816;DHT22;71982;52.294;6.760;2024-02-16T13:22:11;12.40;99.90
36816;DHT22;71982;52.294;6.760;2024-02-16T13:24:38;12.40;99.90
36816;DHT22;71982;52.294;6.760;2024-02-16T13:27:05;12.40;99.90
36816;DHT22;71982;52.294;6.760;2024-02-16T13:29:32;12.40;99.90
36816;DHT22;71982;52.294;6.760;2024-02-16T13:32:00;12.40;99.90
36816;DHT22;71982;52.294;6.760;2024-02-16T13:34:29;12.30;99.90
36816;DHT22;71982;52.294;6.760;2024-02-16T13:36:56;12.40;99.90
36816;DHT22;71982;52.294;6.760;2024-02-16T13:39:23;12.40;99.90
36816;DHT22;71982;52.294;6.760;2024-02-16T13:41:53;12.30;99.90
36816;DHT22;71982;52.294;6.760;2024-02-16T13:44:23;12.30;99.90
36816;DHT22;71982;52.294;6.760;2024-02-16T13:46:50;12.40;99.90
36816;DHT22;71982;52.294;6.760;2024-02-16T13:49:18;12.40;99.90
36816;DHT22;71982;52.294;6.760;2024-02-16T13:51:45;12.40;99.90
36816;DHT22;71982;52.294;6.760;2024-02-16T13:54:12;12.40;99.90
36816;DHT22;71982;52.294;6.760;2024-02-16T13:56:39;12.40;99.90
36816;DHT22;71982;52.294;6.760;2024-02-16T13:59:06;12.40;99.90
36816;DHT22;71982;52.294;6.760;2024-02-16T14:01:33;12.30;99.90
36816;DHT22;71982;52.294;6.760;2024-02-16T14:04:00;12.20;99.90
36816;DHT22;71982;52.294;6.760;2024-02-16T14:06:30;12.30;99.90
36816;DHT22;71982;52.294;6.760;2024-02-16T14:08:57;12.20;99.90
36816;DHT22;71982;52.294;6.760;2024-02-16T14:11:24;12.10;99.90
36816;DHT22;71982;52.294;6.760;2024-02-16T14:13:51;12.10;99.90
36816;DHT22;71982;52.294;6.760;2024-02-16T14:16:18;12.10;99.90
36816;DHT22;71982;52.294;6.760;2024-02-16T14:18:45;12.10;99.90
36816;DHT22;71982;52.294;6.760;2024-02-16T14:21:13;12.10;99.90
36816;DHT22;71982;52.294;6.760;2024-02-16T14:23:41;12.10;99.90
36816;DHT22;71982;52.294;6.760;2024-02-16T14:26:09;12.10;99.90
36816;DHT22;71982;52.294;6.760;2024-02-16T14:28:36;12.00;99.90
36816;DHT22;71982;52.294;6.760;2024-02-16T14:31:04;12.00;99.90
36816;DHT22;71982;52.294;6.760;2024-02-16T14:33:32;12.00;99.90
36816;DHT22;71982;52.294;6.760;2024-02-16T14:35:59;12.00;99.90
36816;DHT22;71982;52.294;6.760;2024-02-16T14:38:26;12.00;99.90
36816;DHT22;71982;52.294;6.760;2024-02-16T14:40:55;12.00;99.90
36816;DHT22;71982;52.294;6.760;2024-02-16T14:43:22;12.00;99.90
36816;DHT22;71982;52.294;6.760;2024-02-16T14:45:49;12.00;99.90
36816;DHT22;71982;52.294;6.760;2024-02-16T14:48:16;12.00;99.90
36816;DHT22;71982;52.294;6.760;2024-02-16T14:50:43;12.00;99.90
36816;DHT22;71982;52.294;6.760;2024-02-16T14:53:09;12.00;99.90
36816;DHT22;71982;52.294;6.760;2024-02-16T14:55:36;12.00;99.90
36816;DHT22;71982;52.294;6.760;2024-02-16T14:58:05;12.00;99.90
36816;DHT22;71982;52.294;6.760;2024-02-16T15:00:32;12.00;99.90
36816;DHT22;71982;52.294;6.760;2024-02-16T15:03:01;12.00;99.90
36816;DHT22;71982;52.294;6.760;2024-02-16T15:05:28;12.00;99.90
36816;DHT22;71982;52.294;6.760;2024-02-16T15:07:58;12.00;99.90
36816;DHT22;71982;52.294;6.760;2024-02-16T15:10:26;12.00;99.90
36816;DHT22;71982;52.294;6.760;2024-02-16T15:12:53;12.10;99.90
36816;DHT22;71982;52.294;6.760;2024-02-16T15:15:21;12.10;99.90
36816;DHT22;71982;52.294;6.760;2024-02-16T15:17:48;12.10;99.90
36816;DHT22;71982;52.294;6.760;2024-02-16T15:20:15;12.00;99.90
36816;DHT22;71982;52.294;6.760;2024-02-16T15:22:42;12.00;99.90
36816;DHT22;71982;52.294;6.760;2024-02-16T15:25:10;12.10;99.90
36816;DHT22;71982;52.294;6.760;2024-02-16T15:27:37;12.10;99.90
36816;DHT22;71982;52.294;6.760;2024-02-16T15:30:06;12.00;99.90
36816;DHT22;71982;52.294;6.760;2024-02-16T15:32:35;12.00;99.90